sensor_id;sensor_type;location;lat;lon;timestamp;P1;durP1;ratioP1;P2;durP2;ratioP2
18449;SDS011;9354;50.194;7.690;2023-03-24T00:01:19;11.03;;;5.40;;
18449;SDS011;9354;50.194;7.690;2023-03-24T00:03:47;11.17;;;5.30;;
18449;SDS011;9354;50.194;7.690;2023-03-24T00:06:16;8.77;;;4.70;;
18449;SDS011;9354;50.194;7.690;2023-03-24T00:08:47;8.93;;;5.03;;
18449;SDS011;9354;50.194;7.690;2023-03-24T00:11:14;11.23;;;4.83;;
18449;SDS011;9354;50.194;7.690;2023-03-24T00:13:44;10.03;;;4.93;;
18449;SDS011;9354;50.194;7.690;2023-03-24T00:16:14;9.67;;;4.50;;
18449;SDS011;9354;50.194;7.690;2023-03-24T00:18:44;7.53;;;4.70;;
18449;SDS011;9354;50.194;7.690;2023-03-24T00:21:14;8.80;;;4.80;;
18449;SDS011;9354;50.194;7.690;2023-03-24T00:23:42;9.27;;;4.40;;
18449;SDS011;9354;50.194;7.690;2023-03-24T00:26:12;10.17;;;4.43;;
18449;SDS011;9354;50.194;7.690;2023-03-24T00:28:45;10.57;;;4.03;;
18449;SDS011;9354;50.194;7.690;2023-03-24T00:31:14;5.77;;;3.93;;
18449;SDS011;9354;50.194;7.690;2023-03-24T00:33:43;8.57;;;4.50;;
18449;SDS011;9354;50.194;7.690;2023-03-24T00:36:15;7.87;;;4.07;;
18449;SDS011;9354;50.194;7.690;2023-03-24T00:38:45;9.03;;;4.63;;
18449;SDS011;9354;50.194;7.690;2023-03-24T00:41:13;8.70;;;4.47;;
18449;SDS011;9354;50.194;7.690;2023-03-24T00:43:42;8.50;;;4.53;;
18449;SDS011;9354;50.194;7.690;2023-03-24T00:46:12;9.10;;;4.53;;
18449;SDS011;9354;50.194;7.690;2023-03-24T00:48:53;6.23;;;3.93;;
18449;SDS011;9354;50.194;7.690;2023-03-24T00:51:27;9.33;;;3.77;;
18449;SDS011;9354;50.194;7.690;2023-03-24T00:53:55;6.33;;;3.80;;
18449;SDS011;9354;50.194;7.690;2023-03-24T00:56:24;6.07;;;4.07;;
18449;SDS011;9354;50.194;7.690;2023-03-24T00:58:54;10.37;;;4.80;;
18449;SDS011;9354;50.194;7.690;2023-03-24T01:01:24;8.47;;;4.50;;
18449;SDS011;9354;50.194;7.690;2023-03-24T01:03:54;10.33;;;4.53;;
18449;SDS011;9354;50.194;7.690;2023-03-24T01:06:22;9.70;;;4.50;;
18449;SDS011;9354;50.194;7.690;2023-03-24T01:08:51;7.80;;;4.97;;
18449;SDS011;9354;50.194;7.690;2023-03-24T01:11:19;9.83;;;4.97;;
18449;SDS011;9354;50.194;7.690;2023-03-24T01:13:49;10.57;;;5.37;;
18449;SDS011;9354;50.194;7.690;2023-03-24T01:16:17;9.30;;;5.03;;
18449;SDS011;9354;50.194;7.690;2023-03-24T01:18:48;7.83;;;4.57;;
18449;SDS011;9354;50.194;7.690;2023-03-24T01:21:17;7.53;;;5.33;;
18449;SDS011;9354;50.194;7.690;2023-03-24T01:23:44;9.30;;;5.20;;
18449;SDS011;9354;50.194;7.690;2023-03-24T01:26:12;11.40;;;5.70;;
18449;SDS011;9354;50.194;7.690;2023-03-24T01:28:40;8.90;;;5.80;;
18449;SDS011;9354;50.194;7.690;2023-03-24T01:31:08;8.70;;;5.20;;
18449;SDS011;9354;50.194;7.690;2023-03-24T01:33:36;8.83;;;6.30;;
18449;SDS011;9354;50.194;7.690;2023-03-24T01:36:06;9.43;;;5.67;;
18449;SDS011;9354;50.194;7.690;2023-03-24T01:38:34;11.17;;;6.23;;
18449;SDS011;9354;50.194;7.690;2023-03-24T01:41:02;8.43;;;5.53;;
18449;SDS011;9354;50.194;7.690;2023-03-24T01:43:31;15.77;;;6.30;;
18449;SDS011;9354;50.194;7.690;2023-03-24T01:46:04;10.10;;;6.00;;
18449;SDS011;9354;50.194;7.690;2023-03-24T01:48:34;12.37;;;6.70;;
18449;SDS011;9354;50.194;7.690;2023-03-24T01:51:08;9.63;;;5.90;;
18449;SDS011;9354;50.194;7.690;2023-03-24T01:53:41;10.67;;;6.20;;
18449;SDS011;9354;50.194;7.690;2023-03-24T01:56:25;13.13;;;6.47;;
18449;SDS011;9354;50.194;7.690;2023-03-24T01:58:56;11.67;;;6.50;;
18449;SDS011;9354;50.194;7.690;2023-03-24T02:01:25;13.33;;;7.23;;
18449;SDS011;9354;50.194;7.690;2023-03-24T02:03:55;13.10;;;6.00;;
18449;SDS011;9354;50.194;7.690;2023-03-24T02:06:24;15.80;;;7.50;;
18449;SDS011;9354;50.194;7.690;2023-03-24T02:08:53;12.27;;;6.50;;
18449;SDS011;9354;50.194;7.690;2023-03-24T02:11:23;11.13;;;5.97;;
18449;SDS011;9354;50.194;7.690;2023-03-24T02:13:52;15.90;;;6.87;;
18449;SDS011;9354;50.194;7.690;2023-03-24T02:16:27;12.90;;;6.37;;
18449;SDS011;9354;50.194;7.690;2023-03-24T02:19:16;15.53;;;7.00;;
18449;SDS011;9354;50.194;7.690;2023-03-24T02:28:34;12.57;;;7.40;;
18449;SDS011;9354;50.194;7.690;2023-03-24T02:37:19;13.70;;;6.70;;
18449;SDS011;9354;50.194;7.690;2023-03-24T02:40:07;12.00;;;7.17;;
18449;SDS011;9354;50.194;7.690;2023-03-24T02:42:48;12.70;;;6.30;;
18449;SDS011;9354;50.194;7.690;2023-03-24T02:45:26;15.50;;;6.60;;
18449;SDS011;9354;50.194;7.690;2023-03-24T02:50:48;12.47;;;6.90;;
18449;SDS011;9354;50.194;7.690;2023-03-24T02:53:21;13.83;;;6.77;;
18449;SDS011;9354;50.194;7.690;2023-03-24T02:55:58;15.23;;;7.30;;
18449;SDS011;9354;50.194;7.690;2023-03-24T02:58:30;13.73;;;6.90;;
18449;SDS011;9354;50.194;7.690;2023-03-24T03:01:04;14.97;;;7.67;;
18449;SDS011;9354;50.194;7.690;2023-03-24T03:03:35;14.10;;;7.10;;
18449;SDS011;9354;50.194;7.690;2023-03-24T03:06:07;13.40;;;7.10;;
18449;SDS011;9354;50.194;7.690;2023-03-24T03:08:39;15.17;;;7.50;;
18449;SDS011;9354;50.194;7.690;2023-03-24T03:11:11;16.23;;;7.60;;
18449;SDS011;9354;50.194;7.690;2023-03-24T03:13:42;16.60;;;7.87;;
18449;SDS011;9354;50.194;7.690;2023-03-24T03:16:15;14.33;;;8.10;;
18449;SDS011;9354;50.194;7.690;2023-03-24T03:18:48;16.87;;;8.00;;
18449;SDS011;9354;50.194;7.690;2023-03-24T03:21:19;14.67;;;8.23;;
18449;SDS011;9354;50.194;7.690;2023-03-24T03:23:50;12.00;;;7.33;;
18449;SDS011;9354;50.194;7.690;2023-03-24T03:26:21;11.17;;;6.63;;
18449;SDS011;9354;50.194;7.690;2023-03-24T03:28:54;13.90;;;6.63;;
18449;SDS011;9354;50.194;7.690;2023-03-24T03:31:26;11.77;;;6.47;;
18449;SDS011;9354;50.194;7.690;2023-03-24T03:33:59;11.07;;;6.70;;
18449;SDS011;9354;50.194;7.690;2023-03-24T03:36:37;10.77;;;6.83;;
18449;SDS011;9354;50.194;7.690;2023-03-24T03:39:13;12.53;;;6.70;;
18449;SDS011;9354;50.194;7.690;2023-03-24T03:41:46;10.33;;;6.07;;
18449;SDS011;9354;50.194;7.690;2023-03-24T03:44:13;11.93;;;6.33;;
18449;SDS011;9354;50.194;7.690;2023-03-24T03:46:41;12.03;;;5.90;;
18449;SDS011;9354;50.194;7.690;2023-03-24T03:49:09;12.10;;;5.77;;
18449;SDS011;9354;50.194;7.690;2023-03-24T03:51:36;8.77;;;5.23;;
18449;SDS011;9354;50.194;7.690;2023-03-24T03:54:05;8.50;;;4.57;;
18449;SDS011;9354;50.194;7.690;2023-03-24T03:56:35;8.70;;;4.43;;
18449;SDS011;9354;50.194;7.690;2023-03-24T03:59:05;8.07;;;4.47;;
18449;SDS011;9354;50.194;7.690;2023-03-24T04:01:34;9.27;;;4.10;;
18449;SDS011;9354;50.194;7.690;2023-03-24T04:04:19;7.37;;;3.90;;
18449;SDS011;9354;50.194;7.690;2023-03-24T04:07:04;7.03;;;3.47;;
18449;SDS011;9354;50.194;7.690;2023-03-24T04:09:40;5.20;;;3.20;;
18449;SDS011;9354;50.194;7.690;2023-03-24T04:12:31;5.87;;;3.13;;
18449;SDS011;9354;50.194;7.690;2023-03-24T04:18:21;4.73;;;2.77;;
18449;SDS011;9354;50.194;7.690;2023-03-24T04:21:04;6.10;;;2.87;;
18449;SDS011;9354;50.194;7.690;2023-03-24T04:23:44;5.10;;;3.30;;
18449;SDS011;9354;50.194;7.690;2023-03-24T04:26:23;4.20;;;2.00;;
18449;SDS011;9354;50.194;7.690;2023-03-24T04:28:57;5.17;;;2.17;;
18449;SDS011;9354;50.194;7.690;2023-03-24T04:31:36;4.07;;;1.70;;
18449;SDS011;9354;50.194;7.690;2023-03-24T04:34:09;3.03;;;1.77;;
18449;SDS011;9354;50.194;7.690;2023-03-24T04:36:43;3.23;;;1.60;;
18449;SDS011;9354;50.194;7.690;2023-03-24T04:39:15;2.43;;;1.60;;
18449;SDS011;9354;50.194;7.690;2023-03-24T04:41:50;3.10;;;1.80;;
18449;SDS011;9354;50.194;7.690;2023-03-24T04:44:18;2.57;;;1.53;;
18449;SDS011;9354;50.194;7.690;2023-03-24T04:46:48;2.17;;;1.47;;
18449;SDS011;9354;50.194;7.690;2023-03-24T04:49:18;2.90;;;1.73;;
18449;SDS011;9354;50.194;7.690;2023-03-24T04:51:49;2.30;;;1.33;;
18449;SDS011;9354;50.194;7.690;2023-03-24T04:54:17;2.27;;;1.27;;
18449;SDS011;9354;50.194;7.690;2023-03-24T04:56:45;2.00;;;1.33;;
18449;SDS011;9354;50.194;7.690;2023-03-24T04:59:15;1.73;;;1.30;;
18449;SDS011;9354;50.194;7.690;2023-03-24T05:01:43;1.60;;;1.17;;
18449;SDS011;9354;50.194;7.690;2023-03-24T05:04:15;3.40;;;1.27;;
18449;SDS011;9354;50.194;7.690;2023-03-24T05:06:43;3.33;;;1.17;;
18449;SDS011;9354;50.194;7.690;2023-03-24T05:09:11;2.40;;;0.90;;
18449;SDS011;9354;50.194;7.690;2023-03-24T05:11:39;2.40;;;1.00;;
18449;SDS011;9354;50.194;7.690;2023-03-24T05:14:07;1.87;;;1.20;;
18449;SDS011;9354;50.194;7.690;2023-03-24T05:16:34;1.77;;;1.10;;
18449;SDS011;9354;50.194;7.690;2023-03-24T05:19:02;1.70;;;1.20;;
18449;SDS011;9354;50.194;7.690;2023-03-24T05:21:31;2.03;;;1.00;;
18449;SDS011;9354;50.194;7.690;2023-03-24T05:23:59;10.27;;;1.60;;
18449;SDS011;9354;50.194;7.690;2023-03-24T05:26:26;1.70;;;1.13;;
18449;SDS011;9354;50.194;7.690;2023-03-24T05:28:54;1.60;;;1.00;;
18449;SDS011;9354;50.194;7.690;2023-03-24T05:31:22;4.17;;;1.30;;
18449;SDS011;9354;50.194;7.690;2023-03-24T05:33:49;2.27;;;1.00;;
18449;SDS011;9354;50.194;7.690;2023-03-24T05:36:17;1.83;;;1.20;;
18449;SDS011;9354;50.194;7.690;2023-03-24T05:38:45;2.10;;;1.10;;
18449;SDS011;9354;50.194;7.690;2023-03-24T05:41:13;2.43;;;1.00;;
18449;SDS011;9354;50.194;7.690;2023-03-24T05:43:40;2.73;;;1.00;;
18449;SDS011;9354;50.194;7.690;2023-03-24T05:46:08;1.93;;;1.03;;
18449;SDS011;9354;50.194;7.690;2023-03-24T05:48:35;2.67;;;1.17;;
18449;SDS011;9354;50.194;7.690;2023-03-24T05:51:03;1.13;;;1.00;;
18449;SDS011;9354;50.194;7.690;2023-03-24T05:53:30;3.50;;;1.20;;
18449;SDS011;9354;50.194;7.690;2023-03-24T05:55:59;2.50;;;1.30;;
18449;SDS011;9354;50.194;7.690;2023-03-24T05:58:26;2.07;;;1.13;;
18449;SDS011;9354;50.194;7.690;2023-03-24T06:00:53;2.53;;;1.20;;
18449;SDS011;9354;50.194;7.690;2023-03-24T06:03:21;3.93;;;0.93;;
18449;SDS011;9354;50.194;7.690;2023-03-24T06:05:48;2.33;;;1.03;;
18449;SDS011;9354;50.194;7.690;2023-03-24T06:08:17;1.43;;;1.10;;
18449;SDS011;9354;50.194;7.690;2023-03-24T06:10:44;1.67;;;1.10;;
18449;SDS011;9354;50.194;7.690;2023-03-24T06:13:14;4.90;;;1.20;;
18449;SDS011;9354;50.194;7.690;2023-03-24T06:15:41;2.47;;;1.00;;
18449;SDS011;9354;50.194;7.690;2023-03-24T06:18:11;1.67;;;1.13;;
18449;SDS011;9354;50.194;7.690;2023-03-24T06:20:38;2.63;;;1.10;;
18449;SDS011;9354;50.194;7.690;2023-03-24T06:23:06;13.67;;;4.60;;
18449;SDS011;9354;50.194;7.690;2023-03-24T06:25:34;1.47;;;1.07;;
18449;SDS011;9354;50.194;7.690;2023-03-24T06:28:02;1.63;;;1.10;;
18449;SDS011;9354;50.194;7.690;2023-03-24T06:30:31;1.90;;;1.13;;
18449;SDS011;9354;50.194;7.690;2023-03-24T06:32:59;3.53;;;1.93;;
18449;SDS011;9354;50.194;7.690;2023-03-24T06:35:26;2.10;;;1.00;;
18449;SDS011;9354;50.194;7.690;2023-03-24T06:37:53;2.30;;;0.97;;
18449;SDS011;9354;50.194;7.690;2023-03-24T06:40:21;1.13;;;0.80;;
18449;SDS011;9354;50.194;7.690;2023-03-24T06:42:48;1.53;;;0.90;;
18449;SDS011;9354;50.194;7.690;2023-03-24T06:45:16;3.33;;;1.90;;
18449;SDS011;9354;50.194;7.690;2023-03-24T06:47:45;5.00;;;1.40;;
18449;SDS011;9354;50.194;7.690;2023-03-24T06:50:12;1.50;;;0.90;;
18449;SDS011;9354;50.194;7.690;2023-03-24T06:52:40;1.80;;;0.90;;
18449;SDS011;9354;50.194;7.690;2023-03-24T06:55:07;3.97;;;0.97;;
18449;SDS011;9354;50.194;7.690;2023-03-24T06:57:35;1.33;;;0.80;;
18449;SDS011;9354;50.194;7.690;2023-03-24T07:00:03;1.40;;;0.90;;
18449;SDS011;9354;50.194;7.690;2023-03-24T07:02:31;5.27;;;0.90;;
18449;SDS011;9354;50.194;7.690;2023-03-24T07:05:01;1.10;;;0.90;;
18449;SDS011;9354;50.194;7.690;2023-03-24T07:07:32;1.33;;;0.80;;
18449;SDS011;9354;50.194;7.690;2023-03-24T07:10:00;2.63;;;0.77;;
18449;SDS011;9354;50.194;7.690;2023-03-24T07:12:28;1.47;;;0.90;;
18449;SDS011;9354;50.194;7.690;2023-03-24T07:14:55;3.70;;;0.83;;
18449;SDS011;9354;50.194;7.690;2023-03-24T07:17:23;1.50;;;0.90;;
18449;SDS011;9354;50.194;7.690;2023-03-24T07:19:50;0.90;;;0.60;;
18449;SDS011;9354;50.194;7.690;2023-03-24T07:22:19;1.37;;;0.70;;
18449;SDS011;9354;50.194;7.690;2023-03-24T07:24:46;2.73;;;1.00;;
18449;SDS011;9354;50.194;7.690;2023-03-24T07:27:13;1.00;;;0.80;;
18449;SDS011;9354;50.194;7.690;2023-03-24T07:29:41;1.30;;;0.73;;
18449;SDS011;9354;50.194;7.690;2023-03-24T07:32:08;1.87;;;0.80;;
18449;SDS011;9354;50.194;7.690;2023-03-24T07:34:36;2.83;;;1.00;;
18449;SDS011;9354;50.194;7.690;2023-03-24T07:37:04;1.53;;;0.90;;
18449;SDS011;9354;50.194;7.690;2023-03-24T07:39:33;1.37;;;0.80;;
18449;SDS011;9354;50.194;7.690;2023-03-24T07:42:00;2.50;;;0.80;;
18449;SDS011;9354;50.194;7.690;2023-03-24T07:44:27;1.60;;;0.90;;
18449;SDS011;9354;50.194;7.690;2023-03-24T07:46:55;2.30;;;0.90;;
18449;SDS011;9354;50.194;7.690;2023-03-24T07:49:22;5.23;;;1.10;;
18449;SDS011;9354;50.194;7.690;2023-03-24T07:51:50;1.40;;;0.80;;
18449;SDS011;9354;50.194;7.690;2023-03-24T07:54:17;1.90;;;0.80;;
18449;SDS011;9354;50.194;7.690;2023-03-24T07:56:47;1.40;;;0.80;;
18449;SDS011;9354;50.194;7.690;2023-03-24T07:59:15;5.37;;;0.90;;
18449;SDS011;9354;50.194;7.690;2023-03-24T08:01:43;1.63;;;1.00;;
18449;SDS011;9354;50.194;7.690;2023-03-24T08:04:10;2.70;;;0.77;;
18449;SDS011;9354;50.194;7.690;2023-03-24T08:06:40;2.50;;;0.90;;
18449;SDS011;9354;50.194;7.690;2023-03-24T08:09:09;3.93;;;0.90;;
18449;SDS011;9354;50.194;7.690;2023-03-24T08:11:36;3.30;;;0.90;;
18449;SDS011;9354;50.194;7.690;2023-03-24T08:14:05;2.10;;;0.97;;
18449;SDS011;9354;50.194;7.690;2023-03-24T08:16:33;1.70;;;1.00;;
18449;SDS011;9354;50.194;7.690;2023-03-24T08:19:03;2.40;;;0.83;;
18449;SDS011;9354;50.194;7.690;2023-03-24T08:21:30;1.87;;;0.70;;
18449;SDS011;9354;50.194;7.690;2023-03-24T08:23:58;3.03;;;0.80;;
18449;SDS011;9354;50.194;7.690;2023-03-24T08:26:25;3.30;;;0.70;;
18449;SDS011;9354;50.194;7.690;2023-03-24T08:28:53;1.53;;;0.60;;
18449;SDS011;9354;50.194;7.690;2023-03-24T08:31:22;2.23;;;0.60;;
18449;SDS011;9354;50.194;7.690;2023-03-24T08:33:50;1.83;;;0.70;;
18449;SDS011;9354;50.194;7.690;2023-03-24T08:36:19;3.30;;;0.60;;
18449;SDS011;9354;50.194;7.690;2023-03-24T08:38:50;1.37;;;0.60;;
18449;SDS011;9354;50.194;7.690;2023-03-24T08:41:19;4.00;;;1.07;;
18449;SDS011;9354;50.194;7.690;2023-03-24T08:43:47;4.00;;;0.60;;
18449;SDS011;9354;50.194;7.690;2023-03-24T08:46:14;4.13;;;0.70;;
18449;SDS011;9354;50.194;7.690;2023-03-24T08:48:43;2.40;;;0.70;;
18449;SDS011;9354;50.194;7.690;2023-03-24T08:51:11;1.97;;;0.70;;
18449;SDS011;9354;50.194;7.690;2023-03-24T08:53:39;2.37;;;0.90;;
18449;SDS011;9354;50.194;7.690;2023-03-24T08:56:07;1.93;;;0.50;;
18449;SDS011;9354;50.194;7.690;2023-03-24T08:58:35;2.33;;;0.67;;
18449;SDS011;9354;50.194;7.690;2023-03-24T09:01:03;1.67;;;0.57;;
18449;SDS011;9354;50.194;7.690;2023-03-24T09:03:30;1.47;;;0.60;;
18449;SDS011;9354;50.194;7.690;2023-03-24T09:05:59;2.10;;;0.80;;
18449;SDS011;9354;50.194;7.690;2023-03-24T09:08:27;4.63;;;0.83;;
18449;SDS011;9354;50.194;7.690;2023-03-24T09:10:54;3.30;;;1.10;;
18449;SDS011;9354;50.194;7.690;2023-03-24T09:13:21;3.30;;;0.60;;
18449;SDS011;9354;50.194;7.690;2023-03-24T09:15:50;4.03;;;0.80;;
18449;SDS011;9354;50.194;7.690;2023-03-24T09:18:19;2.70;;;0.93;;
18449;SDS011;9354;50.194;7.690;2023-03-24T09:20:47;5.30;;;0.87;;
18449;SDS011;9354;50.194;7.690;2023-03-24T09:23:16;2.20;;;0.80;;
18449;SDS011;9354;50.194;7.690;2023-03-24T09:25:44;5.10;;;0.90;;
18449;SDS011;9354;50.194;7.690;2023-03-24T09:28:15;2.43;;;0.80;;
18449;SDS011;9354;50.194;7.690;2023-03-24T09:30:42;1.47;;;0.53;;
18449;SDS011;9354;50.194;7.690;2023-03-24T09:33:10;3.63;;;1.17;;
18449;SDS011;9354;50.194;7.690;2023-03-24T09:35:37;11.67;;;1.10;;
18449;SDS011;9354;50.194;7.690;2023-03-24T09:38:05;3.53;;;0.83;;
18449;SDS011;9354;50.194;7.690;2023-03-24T09:40:37;2.93;;;0.70;;
18449;SDS011;9354;50.194;7.690;2023-03-24T09:43:07;9.13;;;0.60;;
18449;SDS011;9354;50.194;7.690;2023-03-24T09:45:41;3.27;;;0.80;;
18449;SDS011;9354;50.194;7.690;2023-03-24T09:48:16;5.30;;;0.80;;
18449;SDS011;9354;50.194;7.690;2023-03-24T09:50:48;4.10;;;0.93;;
18449;SDS011;9354;50.194;7.690;2023-03-24T09:53:23;5.80;;;0.80;;
18449;SDS011;9354;50.194;7.690;2023-03-24T09:56:00;3.60;;;0.73;;
18449;SDS011;9354;50.194;7.690;2023-03-24T09:58:32;5.07;;;0.80;;
18449;SDS011;9354;50.194;7.690;2023-03-24T10:01:01;1.33;;;0.53;;
18449;SDS011;9354;50.194;7.690;2023-03-24T10:03:28;4.50;;;0.63;;
18449;SDS011;9354;50.194;7.690;2023-03-24T10:05:57;3.73;;;0.77;;
18449;SDS011;9354;50.194;7.690;2023-03-24T10:08:30;6.90;;;1.30;;
18449;SDS011;9354;50.194;7.690;2023-03-24T10:21:11;3.23;;;1.03;;
18449;SDS011;9354;50.194;7.690;2023-03-24T10:23:46;6.30;;;1.77;;
18449;SDS011;9354;50.194;7.690;2023-03-24T10:26:23;9.43;;;0.97;;
18449;SDS011;9354;50.194;7.690;2023-03-24T10:29:02;4.77;;;0.60;;
18449;SDS011;9354;50.194;7.690;2023-03-24T10:31:39;2.40;;;0.70;;
18449;SDS011;9354;50.194;7.690;2023-03-24T10:34:09;5.10;;;0.70;;
18449;SDS011;9354;50.194;7.690;2023-03-24T10:36:40;6.40;;;0.87;;
18449;SDS011;9354;50.194;7.690;2023-03-24T10:39:08;4.80;;;1.10;;
18449;SDS011;9354;50.194;7.690;2023-03-24T10:41:40;1.20;;;0.60;;
18449;SDS011;9354;50.194;7.690;2023-03-24T10:44:08;3.87;;;0.90;;
18449;SDS011;9354;50.194;7.690;2023-03-24T10:46:49;2.20;;;0.60;;
18449;SDS011;9354;50.194;7.690;2023-03-24T10:49:20;5.73;;;1.00;;
18449;SDS011;9354;50.194;7.690;2023-03-24T10:51:50;3.23;;;0.80;;
18449;SDS011;9354;50.194;7.690;2023-03-24T10:54:21;3.63;;;0.93;;
18449;SDS011;9354;50.194;7.690;2023-03-24T10:56:50;3.97;;;1.07;;
18449;SDS011;9354;50.194;7.690;2023-03-24T10:59:27;3.47;;;0.60;;
18449;SDS011;9354;50.194;7.690;2023-03-24T11:01:58;8.33;;;0.93;;
18449;SDS011;9354;50.194;7.690;2023-03-24T11:04:28;0.97;;;0.63;;
18449;SDS011;9354;50.194;7.690;2023-03-24T11:07:01;5.80;;;1.00;;
18449;SDS011;9354;50.194;7.690;2023-03-24T11:09:37;3.00;;;0.70;;
18449;SDS011;9354;50.194;7.690;2023-03-24T11:12:18;6.37;;;0.90;;
18449;SDS011;9354;50.194;7.690;2023-03-24T11:14:50;3.70;;;1.00;;
18449;SDS011;9354;50.194;7.690;2023-03-24T11:17:25;7.53;;;1.07;;
18449;SDS011;9354;50.194;7.690;2023-03-24T11:19:53;5.53;;;1.30;;
18449;SDS011;9354;50.194;7.690;2023-03-24T11:22:24;5.17;;;1.77;;
18449;SDS011;9354;50.194;7.690;2023-03-24T11:24:54;3.67;;;1.10;;
18449;SDS011;9354;50.194;7.690;2023-03-24T11:27:22;9.03;;;1.20;;
18449;SDS011;9354;50.194;7.690;2023-03-24T11:29:51;5.97;;;0.70;;
18449;SDS011;9354;50.194;7.690;2023-03-24T11:32:22;3.87;;;0.90;;
18449;SDS011;9354;50.194;7.690;2023-03-24T11:34:56;4.77;;;0.90;;
18449;SDS011;9354;50.194;7.690;2023-03-24T11:37:32;8.30;;;1.63;;
18449;SDS011;9354;50.194;7.690;2023-03-24T11:40:13;4.40;;;1.40;;
18449;SDS011;9354;50.194;7.690;2023-03-24T11:42:47;4.50;;;1.03;;
18449;SDS011;9354;50.194;7.690;2023-03-24T11:45:26;4.20;;;0.70;;
18449;SDS011;9354;50.194;7.690;2023-03-24T11:47:59;2.37;;;0.80;;
18449;SDS011;9354;50.194;7.690;2023-03-24T11:50:29;6.47;;;1.30;;
18449;SDS011;9354;50.194;7.690;2023-03-24T11:53:02;4.23;;;0.80;;
18449;SDS011;9354;50.194;7.690;2023-03-24T11:55:37;3.97;;;1.00;;
18449;SDS011;9354;50.194;7.690;2023-03-24T11:58:11;4.73;;;0.87;;
18449;SDS011;9354;50.194;7.690;2023-03-24T12:00:46;6.60;;;1.10;;
18449;SDS011;9354;50.194;7.690;2023-03-24T12:03:27;4.70;;;1.00;;
18449;SDS011;9354;50.194;7.690;2023-03-24T12:06:19;4.20;;;0.97;;
18449;SDS011;9354;50.194;7.690;2023-03-24T12:09:07;9.50;;;1.00;;
18449;SDS011;9354;50.194;7.690;2023-03-24T12:11:48;2.97;;;1.07;;
18449;SDS011;9354;50.194;7.690;2023-03-24T12:14:42;2.90;;;0.80;;
18449;SDS011;9354;50.194;7.690;2023-03-24T12:17:16;5.43;;;1.13;;
18449;SDS011;9354;50.194;7.690;2023-03-24T12:22:44;4.60;;;1.00;;
18449;SDS011;9354;50.194;7.690;2023-03-24T12:25:30;7.20;;;1.03;;
18449;SDS011;9354;50.194;7.690;2023-03-24T12:28:18;3.10;;;0.90;;
18449;SDS011;9354;50.194;7.690;2023-03-24T12:31:08;4.57;;;0.97;;
18449;SDS011;9354;50.194;7.690;2023-03-24T12:33:47;4.00;;;0.93;;
18449;SDS011;9354;50.194;7.690;2023-03-24T12:36:29;5.33;;;0.90;;
18449;SDS011;9354;50.194;7.690;2023-03-24T12:39:07;4.90;;;0.90;;
18449;SDS011;9354;50.194;7.690;2023-03-24T12:41:39;6.23;;;0.93;;
18449;SDS011;9354;50.194;7.690;2023-03-24T12:47:32;3.40;;;0.73;;
18449;SDS011;9354;50.194;7.690;2023-03-24T12:50:20;7.30;;;0.97;;
18449;SDS011;9354;50.194;7.690;2023-03-24T12:52:58;3.77;;;1.20;;
18449;SDS011;9354;50.194;7.690;2023-03-24T12:55:37;5.77;;;0.73;;
18449;SDS011;9354;50.194;7.690;2023-03-24T12:58:12;6.07;;;0.80;;
18449;SDS011;9354;50.194;7.690;2023-03-24T13:00:46;3.90;;;1.13;;
18449;SDS011;9354;50.194;7.690;2023-03-24T13:03:26;3.10;;;0.80;;
18449;SDS011;9354;50.194;7.690;2023-03-24T13:05:58;3.77;;;1.00;;
18449;SDS011;9354;50.194;7.690;2023-03-24T13:08:35;2.50;;;0.80;;
18449;SDS011;9354;50.194;7.690;2023-03-24T13:11:05;4.43;;;0.97;;
18449;SDS011;9354;50.194;7.690;2023-03-24T13:13:39;3.67;;;0.90;;
18449;SDS011;9354;50.194;7.690;2023-03-24T13:16:10;3.47;;;1.13;;
18449;SDS011;9354;50.194;7.690;2023-03-24T13:18:42;4.13;;;0.77;;
18449;SDS011;9354;50.194;7.690;2023-03-24T13:21:13;2.50;;;0.90;;
18449;SDS011;9354;50.194;7.690;2023-03-24T13:23:44;2.67;;;0.77;;
18449;SDS011;9354;50.194;7.690;2023-03-24T13:26:19;4.77;;;0.90;;
18449;SDS011;9354;50.194;7.690;2023-03-24T13:28:58;4.67;;;1.00;;
18449;SDS011;9354;50.194;7.690;2023-03-24T13:31:41;5.73;;;0.80;;
18449;SDS011;9354;50.194;7.690;2023-03-24T13:34:15;2.57;;;0.80;;
18449;SDS011;9354;50.194;7.690;2023-03-24T13:36:50;5.60;;;0.90;;
18449;SDS011;9354;50.194;7.690;2023-03-24T13:39:21;4.90;;;0.80;;
18449;SDS011;9354;50.194;7.690;2023-03-24T13:41:52;5.60;;;0.97;;
18449;SDS011;9354;50.194;7.690;2023-03-24T13:44:23;2.77;;;0.90;;
18449;SDS011;9354;50.194;7.690;2023-03-24T13:47:02;6.40;;;1.07;;
18449;SDS011;9354;50.194;7.690;2023-03-24T13:49:32;4.43;;;1.00;;
18449;SDS011;9354;50.194;7.690;2023-03-24T13:52:01;5.60;;;1.00;;
18449;SDS011;9354;50.194;7.690;2023-03-24T13:54:30;6.60;;;1.00;;
18449;SDS011;9354;50.194;7.690;2023-03-24T13:57:02;5.43;;;0.87;;
18449;SDS011;9354;50.194;7.690;2023-03-24T13:59:38;5.57;;;1.03;;
18449;SDS011;9354;50.194;7.690;2023-03-24T14:02:16;4.33;;;1.00;;
18449;SDS011;9354;50.194;7.690;2023-03-24T14:04:48;6.30;;;0.90;;
18449;SDS011;9354;50.194;7.690;2023-03-24T14:07:31;2.60;;;1.00;;
18449;SDS011;9354;50.194;7.690;2023-03-24T14:13:17;5.97;;;1.20;;
18449;SDS011;9354;50.194;7.690;2023-03-24T14:15:49;6.10;;;0.80;;
18449;SDS011;9354;50.194;7.690;2023-03-24T14:21:07;6.63;;;0.90;;
18449;SDS011;9354;50.194;7.690;2023-03-24T14:23:36;7.40;;;0.67;;
18449;SDS011;9354;50.194;7.690;2023-03-24T14:26:07;6.50;;;1.10;;
18449;SDS011;9354;50.194;7.690;2023-03-24T14:28:40;4.97;;;0.80;;
18449;SDS011;9354;50.194;7.690;2023-03-24T14:31:16;5.87;;;1.03;;
18449;SDS011;9354;50.194;7.690;2023-03-24T14:33:57;6.03;;;1.07;;
18449;SDS011;9354;50.194;7.690;2023-03-24T14:36:30;7.60;;;0.73;;
18449;SDS011;9354;50.194;7.690;2023-03-24T14:39:05;4.70;;;0.80;;
18449;SDS011;9354;50.194;7.690;2023-03-24T14:41:39;2.93;;;0.90;;
18449;SDS011;9354;50.194;7.690;2023-03-24T14:44:08;3.60;;;0.80;;
18449;SDS011;9354;50.194;7.690;2023-03-24T14:46:38;6.30;;;1.40;;
18449;SDS011;9354;50.194;7.690;2023-03-24T14:49:12;3.43;;;0.80;;
18449;SDS011;9354;50.194;7.690;2023-03-24T14:51:57;3.63;;;0.90;;
18449;SDS011;9354;50.194;7.690;2023-03-24T14:54:31;4.00;;;0.97;;
18449;SDS011;9354;50.194;7.690;2023-03-24T14:57:02;5.40;;;1.07;;
18449;SDS011;9354;50.194;7.690;2023-03-24T14:59:36;5.97;;;0.97;;
18449;SDS011;9354;50.194;7.690;2023-03-24T15:02:15;2.07;;;1.23;;
18449;SDS011;9354;50.194;7.690;2023-03-24T15:08:02;6.00;;;1.00;;
18449;SDS011;9354;50.194;7.690;2023-03-24T15:10:37;4.53;;;0.77;;
18449;SDS011;9354;50.194;7.690;2023-03-24T15:13:26;6.80;;;0.80;;
18449;SDS011;9354;50.194;7.690;2023-03-24T15:15:59;9.13;;;0.83;;
18449;SDS011;9354;50.194;7.690;2023-03-24T15:18:30;5.57;;;1.03;;
18449;SDS011;9354;50.194;7.690;2023-03-24T15:20:57;3.27;;;1.10;;
18449;SDS011;9354;50.194;7.690;2023-03-24T15:23:26;5.63;;;0.97;;
18449;SDS011;9354;50.194;7.690;2023-03-24T15:25:53;6.73;;;1.17;;
18449;SDS011;9354;50.194;7.690;2023-03-24T15:28:23;4.87;;;0.80;;
18449;SDS011;9354;50.194;7.690;2023-03-24T15:30:51;5.93;;;1.27;;
18449;SDS011;9354;50.194;7.690;2023-03-24T15:33:20;5.40;;;0.90;;
18449;SDS011;9354;50.194;7.690;2023-03-24T15:35:54;3.40;;;0.90;;
18449;SDS011;9354;50.194;7.690;2023-03-24T15:38:26;6.30;;;1.00;;
18449;SDS011;9354;50.194;7.690;2023-03-24T15:40:55;2.17;;;0.80;;
18449;SDS011;9354;50.194;7.690;2023-03-24T15:43:26;6.40;;;1.13;;
18449;SDS011;9354;50.194;7.690;2023-03-24T15:45:54;5.73;;;1.17;;
18449;SDS011;9354;50.194;7.690;2023-03-24T15:48:25;4.63;;;0.97;;
18449;SDS011;9354;50.194;7.690;2023-03-24T15:50:59;5.87;;;1.10;;
18449;SDS011;9354;50.194;7.690;2023-03-24T15:53:28;4.73;;;1.17;;
18449;SDS011;9354;50.194;7.690;2023-03-24T15:56:00;4.00;;;0.67;;
18449;SDS011;9354;50.194;7.690;2023-03-24T15:58:30;3.63;;;0.87;;
18449;SDS011;9354;50.194;7.690;2023-03-24T16:00:58;3.03;;;0.77;;
18449;SDS011;9354;50.194;7.690;2023-03-24T16:03:30;5.97;;;0.97;;
18449;SDS011;9354;50.194;7.690;2023-03-24T16:06:00;2.97;;;0.70;;
18449;SDS011;9354;50.194;7.690;2023-03-24T16:08:30;2.57;;;0.80;;
18449;SDS011;9354;50.194;7.690;2023-03-24T16:11:00;9.33;;;1.60;;